sensor_id;sensor_type;location;lat;lon;timestamp;temperature;humidity
10846;DHT22;5476;51.540;7.186;2023-05-15T00:00:42;16.90;99.90
10846;DHT22;5476;51.540;7.186;2023-05-15T00:03:09;16.80;99.90
10846;DHT22;5476;51.540;7.186;2023-05-15T00:05:36;16.90;99.90
10846;DHT22;5476;51.540;7.186;2023-05-15T00:08:04;16.90;99.90
10846;DHT22;5476;51.540;7.186;2023-05-15T00:10:32;16.90;99.90
10846;DHT22;5476;51.540;7.186;2023-05-15T00:12:59;16.80;99.90
10846;DHT22;5476;51.540;7.186;2023-05-15T00:15:26;16.90;99.90
10846;DHT22;5476;51.540;7.186;2023-05-15T00:17:53;16.80;99.90
10846;DHT22;5476;51.540;7.186;2023-05-15T00:20:20;16.70;99.90
10846;DHT22;5476;51.540;7.186;2023-05-15T00:22:47;16.60;99.90
10846;DHT22;5476;51.540;7.186;2023-05-15T00:25:14;16.50;99.90
10846;DHT22;5476;51.540;7.186;2023-05-15T00:27:42;16.50;99.90
10846;DHT22;5476;51.540;7.186;2023-05-15T00:30:10;16.50;99.90
10846;DHT22;5476;51.540;7.186;2023-05-15T00:32:37;16.50;99.90
10846;DHT22;5476;51.540;7.186;2023-05-15T00:35:05;16.50;99.90
10846;DHT22;5476;51.540;7.186;2023-05-15T00:37:32;16.40;99.90
10846;DHT22;5476;51.540;7.186;2023-05-15T00:39:59;16.50;99.90
10846;DHT22;5476;51.540;7.186;2023-05-15T00:42:26;16.40;99.90
10846;DHT22;5476;51.540;7.186;2023-05-15T00:44:55;16.40;99.90
10846;DHT22;5476;51.540;7.186;2023-05-15T00:47:25;16.40;99.90
10846;DHT22;5476;51.540;7.186;2023-05-15T00:52:20;16.30;99.90
10846;DHT22;5476;51.540;7.186;2023-05-15T00:54:47;16.40;99.90
10846;DHT22;5476;51.540;7.186;2023-05-15T00:57:14;16.40;99.90
10846;DHT22;5476;51.540;7.186;2023-05-15T00:59:44;16.20;99.90
10846;DHT22;5476;51.540;7.186;2023-05-15T01:02:14;16.10;99.90
10846;DHT22;5476;51.540;7.186;2023-05-15T01:04:43;16.10;99.90
10846;DHT22;5476;51.540;7.186;2023-05-15T01:07:10;16.00;99.90
10846;DHT22;5476;51.540;7.186;2023-05-15T01:09:37;16.00;99.90
10846;DHT22;5476;51.540;7.186;2023-05-15T01:12:07;16.10;99.90
10846;DHT22;5476;51.540;7.186;2023-05-15T01:14:34;16.10;99.90
10846;DHT22;5476;51.540;7.186;2023-05-15T01:19:30;16.10;99.90
10846;DHT22;5476;51.540;7.186;2023-05-15T01:22:18;16.00;99.90
10846;DHT22;5476;51.540;7.186;2023-05-15T01:25:02;15.90;99.90
10846;DHT22;5476;51.540;7.186;2023-05-15T01:27:36;15.90;99.90
10846;DHT22;5476;51.540;7.186;2023-05-15T01:30:11;15.90;99.90
10846;DHT22;5476;51.540;7.186;2023-05-15T01:35:32;15.50;99.90
10846;DHT22;5476;51.540;7.186;2023-05-15T01:38:07;15.80;99.90
10846;DHT22;5476;51.540;7.186;2023-05-15T01:40:38;15.80;99.90
10846;DHT22;5476;51.540;7.186;2023-05-15T01:43:08;17.80;99.90
10846;DHT22;5476;51.540;7.186;2023-05-15T01:45:38;15.80;99.90
10846;DHT22;5476;51.540;7.186;2023-05-15T01:48:06;15.80;99.90
10846;DHT22;5476;51.540;7.186;2023-05-15T01:50:34;15.70;99.90
10846;DHT22;5476;51.540;7.186;2023-05-15T01:53:02;15.60;99.90
10846;DHT22;5476;51.540;7.186;2023-05-15T01:55:31;15.50;99.90
10846;DHT22;5476;51.540;7.186;2023-05-15T01:58:00;15.50;99.90
10846;DHT22;5476;51.540;7.186;2023-05-15T02:00:30;15.60;99.90
10846;DHT22;5476;51.540;7.186;2023-05-15T02:02:58;15.60;99.90
10846;DHT22;5476;51.540;7.186;2023-05-15T02:05:26;15.50;99.90
10846;DHT22;5476;51.540;7.186;2023-05-15T02:07:54;15.50;99.90
10846;DHT22;5476;51.540;7.186;2023-05-15T02:15:18;15.50;99.90
10846;DHT22;5476;51.540;7.186;2023-05-15T02:17:47;15.60;99.90
10846;DHT22;5476;51.540;7.186;2023-05-15T02:25:09;15.50;99.90
10846;DHT22;5476;51.540;7.186;2023-05-15T02:27:40;15.30;99.90
10846;DHT22;5476;51.540;7.186;2023-05-15T02:30:28;15.30;99.90
10846;DHT22;5476;51.540;7.186;2023-05-15T02:33:09;15.20;99.90
10846;DHT22;5476;51.540;7.186;2023-05-15T02:35:42;15.30;99.90
10846;DHT22;5476;51.540;7.186;2023-05-15T02:38:15;15.20;99.90
10846;DHT22;5476;51.540;7.186;2023-05-15T02:40:43;15.20;99.90
10846;DHT22;5476;51.540;7.186;2023-05-15T02:43:12;15.00;99.90
10846;DHT22;5476;51.540;7.186;2023-05-15T02:45:40;14.70;99.90
10846;DHT22;5476;51.540;7.186;2023-05-15T02:48:08;14.70;99.90
10846;DHT22;5476;51.540;7.186;2023-05-15T02:53:03;14.80;99.90
10846;DHT22;5476;51.540;7.186;2023-05-15T02:55:30;14.90;99.90
10846;DHT22;5476;51.540;7.186;2023-05-15T02:57:58;14.80;99.90
10846;DHT22;5476;51.540;7.186;2023-05-15T03:00:25;14.80;99.90
10846;DHT22;5476;51.540;7.186;2023-05-15T03:05:20;14.80;99.90
10846;DHT22;5476;51.540;7.186;2023-05-15T03:07:47;14.80;99.90
10846;DHT22;5476;51.540;7.186;2023-05-15T03:10:14;14.80;99.90
10846;DHT22;5476;51.540;7.186;2023-05-15T03:12:41;14.80;99.90
10846;DHT22;5476;51.540;7.186;2023-05-15T03:15:08;14.90;99.90
10846;DHT22;5476;51.540;7.186;2023-05-15T03:20:03;15.00;99.90
10846;DHT22;5476;51.540;7.186;2023-05-15T03:22:32;14.90;99.90
10846;DHT22;5476;51.540;7.186;2023-05-15T03:24:59;14.80;99.90
10846;DHT22;5476;51.540;7.186;2023-05-15T03:32:20;14.80;99.90
10846;DHT22;5476;51.540;7.186;2023-05-15T03:34:47;14.80;99.90
10846;DHT22;5476;51.540;7.186;2023-05-15T03:37:14;14.70;99.90
10846;DHT22;5476;51.540;7.186;2023-05-15T03:39:43;14.70;99.90
10846;DHT22;5476;51.540;7.186;2023-05-15T03:44:37;14.80;99.90
10846;DHT22;5476;51.540;7.186;2023-05-15T03:47:04;14.80;99.90
10846;DHT22;5476;51.540;7.186;2023-05-15T03:49:31;14.80;99.90
10846;DHT22;5476;51.540;7.186;2023-05-15T03:51:58;14.80;99.90
10846;DHT22;5476;51.540;7.186;2023-05-15T03:54:25;14.80;99.90
10846;DHT22;5476;51.540;7.186;2023-05-15T03:56:54;14.80;99.90
10846;DHT22;5476;51.540;7.186;2023-05-15T03:59:21;14.70;99.90
10846;DHT22;5476;51.540;7.186;2023-05-15T04:01:47;14.70;99.90
10846;DHT22;5476;51.540;7.186;2023-05-15T04:04:14;15.60;99.90
10846;DHT22;5476;51.540;7.186;2023-05-15T04:06:41;14.80;99.90
10846;DHT22;5476;51.540;7.186;2023-05-15T04:11:36;14.80;99.90
10846;DHT22;5476;51.540;7.186;2023-05-15T04:14:04;14.80;99.90
10846;DHT22;5476;51.540;7.186;2023-05-15T04:16:31;14.80;99.90
10846;DHT22;5476;51.540;7.186;2023-05-15T04:18:58;14.80;99.90
10846;DHT22;5476;51.540;7.186;2023-05-15T04:21:25;14.70;99.90
10846;DHT22;5476;51.540;7.186;2023-05-15T04:23:52;14.70;99.90
10846;DHT22;5476;51.540;7.186;2023-05-15T04:26:19;14.60;99.90
10846;DHT22;5476;51.540;7.186;2023-05-15T04:28:46;14.60;99.90
10846;DHT22;5476;51.540;7.186;2023-05-15T04:31:14;14.50;99.90
10846;DHT22;5476;51.540;7.186;2023-05-15T04:33:41;14.60;99.90
10846;DHT22;5476;51.540;7.186;2023-05-15T04:36:08;14.60;99.90
10846;DHT22;5476;51.540;7.186;2023-05-15T04:38:35;14.60;99.90
10846;DHT22;5476;51.540;7.186;2023-05-15T04:43:30;14.60;99.90
10846;DHT22;5476;51.540;7.186;2023-05-15T04:45:57;14.60;99.90
10846;DHT22;5476;51.540;7.186;2023-05-15T04:48:25;14.60;99.90
10846;DHT22;5476;51.540;7.186;2023-05-15T04:50:52;14.60;99.90
10846;DHT22;5476;51.540;7.186;2023-05-15T04:53:19;14.50;99.90
10846;DHT22;5476;51.540;7.186;2023-05-15T04:55:46;14.50;99.90
10846;DHT22;5476;51.540;7.186;2023-05-15T04:58:15;14.60;99.90
10846;DHT22;5476;51.540;7.186;2023-05-15T05:00:42;14.40;99.90
10846;DHT22;5476;51.540;7.186;2023-05-15T05:03:09;14.30;99.90
10846;DHT22;5476;51.540;7.186;2023-05-15T05:05:37;14.20;99.90
10846;DHT22;5476;51.540;7.186;2023-05-15T05:08:04;14.20;99.90
10846;DHT22;5476;51.540;7.186;2023-05-15T05:10:31;14.20;99.90
10846;DHT22;5476;51.540;7.186;2023-05-15T05:12:58;14.20;99.90
10846;DHT22;5476;51.540;7.186;2023-05-15T05:15:25;14.10;99.90
10846;DHT22;5476;51.540;7.186;2023-05-15T05:17:52;14.10;99.90
10846;DHT22;5476;51.540;7.186;2023-05-15T05:20:19;14.00;99.90
10846;DHT22;5476;51.540;7.186;2023-05-15T05:22:47;14.00;99.90
10846;DHT22;5476;51.540;7.186;2023-05-15T05:25:14;14.00;99.90
10846;DHT22;5476;51.540;7.186;2023-05-15T05:30:09;14.20;99.90
10846;DHT22;5476;51.540;7.186;2023-05-15T05:32:36;14.20;99.90
10846;DHT22;5476;51.540;7.186;2023-05-15T05:35:04;14.30;99.90
10846;DHT22;5476;51.540;7.186;2023-05-15T05:37:31;14.30;99.90
10846;DHT22;5476;51.540;7.186;2023-05-15T05:39:59;14.30;99.90
10846;DHT22;5476;51.540;7.186;2023-05-15T05:42:26;14.10;99.90
10846;DHT22;5476;51.540;7.186;2023-05-15T05:44:53;13.90;99.90
10846;DHT22;5476;51.540;7.186;2023-05-15T05:47:20;13.90;99.90
10846;DHT22;5476;51.540;7.186;2023-05-15T05:49:47;13.90;99.90
10846;DHT22;5476;51.540;7.186;2023-05-15T05:54:41;13.90;99.90
10846;DHT22;5476;51.540;7.186;2023-05-15T05:57:11;13.90;99.90
10846;DHT22;5476;51.540;7.186;2023-05-15T05:59:39;13.90;99.90
10846;DHT22;5476;51.540;7.186;2023-05-15T06:02:06;13.90;99.90
10846;DHT22;5476;51.540;7.186;2023-05-15T06:04:33;14.00;99.90
10846;DHT22;5476;51.540;7.186;2023-05-15T06:07:01;14.10;99.90
10846;DHT22;5476;51.540;7.186;2023-05-15T06:09:28;14.20;99.90
10846;DHT22;5476;51.540;7.186;2023-05-15T06:11:55;14.20;99.90
10846;DHT22;5476;51.540;7.186;2023-05-15T06:14:23;14.30;99.90
10846;DHT22;5476;51.540;7.186;2023-05-15T06:16:50;14.30;99.90
10846;DHT22;5476;51.540;7.186;2023-05-15T06:19:19;14.30;99.90
10846;DHT22;5476;51.540;7.186;2023-05-15T06:21:46;14.20;99.90
10846;DHT22;5476;51.540;7.186;2023-05-15T06:24:13;14.10;99.90
10846;DHT22;5476;51.540;7.186;2023-05-15T06:26:40;14.20;99.90
10846;DHT22;5476;51.540;7.186;2023-05-15T06:29:07;14.30;99.90
10846;DHT22;5476;51.540;7.186;2023-05-15T06:31:36;14.40;99.90
10846;DHT22;5476;51.540;7.186;2023-05-15T06:34:03;14.50;99.90
10846;DHT22;5476;51.540;7.186;2023-05-15T06:36:29;14.50;99.90
10846;DHT22;5476;51.540;7.186;2023-05-15T06:38:56;14.60;99.90
10846;DHT22;5476;51.540;7.186;2023-05-15T06:41:23;14.60;99.90
10846;DHT22;5476;51.540;7.186;2023-05-15T06:43:50;14.60;99.90
10846;DHT22;5476;51.540;7.186;2023-05-15T06:46:18;14.50;99.90
10846;DHT22;5476;51.540;7.186;2023-05-15T06:48:46;14.50;99.90
10846;DHT22;5476;51.540;7.186;2023-05-15T06:51:13;14.50;99.90
10846;DHT22;5476;51.540;7.186;2023-05-15T06:53:40;14.50;99.90
10846;DHT22;5476;51.540;7.186;2023-05-15T06:56:07;14.50;99.90
10846;DHT22;5476;51.540;7.186;2023-05-15T06:58:34;14.60;99.90
10846;DHT22;5476;51.540;7.186;2023-05-15T07:01:01;14.70;99.90
10846;DHT22;5476;51.540;7.186;2023-05-15T07:03:28;14.70;99.90
10846;DHT22;5476;51.540;7.186;2023-05-15T07:06:00;14.60;99.90
10846;DHT22;5476;51.540;7.186;2023-05-15T07:08:27;14.60;99.90
10846;DHT22;5476;51.540;7.186;2023-05-15T07:10:54;14.70;99.90
10846;DHT22;5476;51.540;7.186;2023-05-15T07:13:22;14.70;99.90
10846;DHT22;5476;51.540;7.186;2023-05-15T07:15:49;14.70;99.90
10846;DHT22;5476;51.540;7.186;2023-05-15T07:18:16;14.70;99.90
10846;DHT22;5476;51.540;7.186;2023-05-15T07:20:43;14.70;99.90
10846;DHT22;5476;51.540;7.186;2023-05-15T07:23:11;14.70;99.90
10846;DHT22;5476;51.540;7.186;2023-05-15T07:25:38;14.70;99.90
10846;DHT22;5476;51.540;7.186;2023-05-15T07:28:05;14.80;99.90
10846;DHT22;5476;51.540;7.186;2023-05-15T07:30:32;14.80;99.90
10846;DHT22;5476;51.540;7.186;2023-05-15T07:35:26;14.90;99.90
10846;DHT22;5476;51.540;7.186;2023-05-15T07:37:53;15.10;99.90
10846;DHT22;5476;51.540;7.186;2023-05-15T07:40:21;15.00;99.90
10846;DHT22;5476;51.540;7.186;2023-05-15T07:42:48;15.00;99.90
10846;DHT22;5476;51.540;7.186;2023-05-15T07:45:15;15.20;99.90
10846;DHT22;5476;51.540;7.186;2023-05-15T07:47:43;15.20;99.90
10846;DHT22;5476;51.540;7.186;2023-05-15T07:50:11;15.40;99.90
10846;DHT22;5476;51.540;7.186;2023-05-15T07:52:38;15.50;99.90
10846;DHT22;5476;51.540;7.186;2023-05-15T07:55:06;15.50;99.90
10846;DHT22;5476;51.540;7.186;2023-05-15T07:57:34;15.50;99.90
10846;DHT22;5476;51.540;7.186;2023-05-15T08:00:02;15.70;99.90
10846;DHT22;5476;51.540;7.186;2023-05-15T08:05:01;16.00;99.90
10846;DHT22;5476;51.540;7.186;2023-05-15T08:07:30;16.10;99.90
10846;DHT22;5476;51.540;7.186;2023-05-15T08:09:57;16.10;99.90
10846;DHT22;5476;51.540;7.186;2023-05-15T08:12:25;16.20;99.90
10846;DHT22;5476;51.540;7.186;2023-05-15T08:14:54;16.60;99.90
10846;DHT22;5476;51.540;7.186;2023-05-15T08:17:21;16.60;99.90
10846;DHT22;5476;51.540;7.186;2023-05-15T08:19:48;16.70;99.90
10846;DHT22;5476;51.540;7.186;2023-05-15T08:22:15;16.80;99.90
10846;DHT22;5476;51.540;7.186;2023-05-15T08:24:42;16.90;99.90
10846;DHT22;5476;51.540;7.186;2023-05-15T08:27:09;16.90;99.90
10846;DHT22;5476;51.540;7.186;2023-05-15T08:29:36;17.00;99.90
10846;DHT22;5476;51.540;7.186;2023-05-15T08:32:05;17.10;99.90
10846;DHT22;5476;51.540;7.186;2023-05-15T08:34:33;17.10;99.90
10846;DHT22;5476;51.540;7.186;2023-05-15T08:36:59;17.10;99.90
10846;DHT22;5476;51.540;7.186;2023-05-15T08:39:26;17.30;99.90
10846;DHT22;5476;51.540;7.186;2023-05-15T08:41:57;17.50;99.90
10846;DHT22;5476;51.540;7.186;2023-05-15T08:44:26;17.60;99.90
10846;DHT22;5476;51.540;7.186;2023-05-15T08:46:53;17.60;99.90
10846;DHT22;5476;51.540;7.186;2023-05-15T08:52:08;17.60;99.90
10846;DHT22;5476;51.540;7.186;2023-05-15T08:54:36;17.70;99.90
10846;DHT22;5476;51.540;7.186;2023-05-15T08:57:04;17.80;99.90
10846;DHT22;5476;51.540;7.186;2023-05-15T08:59:31;17.90;99.90
10846;DHT22;5476;51.540;7.186;2023-05-15T09:01:59;18.00;99.90
10846;DHT22;5476;51.540;7.186;2023-05-15T09:04:28;17.90;99.90
10846;DHT22;5476;51.540;7.186;2023-05-15T09:06:56;18.10;99.90
10846;DHT22;5476;51.540;7.186;2023-05-15T09:09:32;18.50;99.90
10846;DHT22;5476;51.540;7.186;2023-05-15T18:44:51;17.70;99.90
10846;DHT22;5476;51.540;7.186;2023-05-15T20:08:25;16.00;99.90
10846;DHT22;5476;51.540;7.186;2023-05-15T20:57:47;15.60;99.90
10846;DHT22;5476;51.540;7.186;2023-05-15T21:00:15;15.50;99.90
10846;DHT22;5476;51.540;7.186;2023-05-15T21:49:29;15.20;99.90
10846;DHT22;5476;51.540;7.186;2023-05-15T22:28:52;14.60;99.90
10846;DHT22;5476;51.540;7.186;2023-05-15T22:46:05;14.60;99.90
10846;DHT22;5476;51.540;7.186;2023-05-15T23:30:17;14.20;99.90
10846;DHT22;5476;51.540;7.186;2023-05-15T23:37:40;14.20;99.90
10846;DHT22;5476;51.540;7.186;2023-05-15T23:54:53;14.00;99.90
